sensor_id;sensor_type;location;lat;lon;timestamp;pressure;altitude;pressure_sealevel;temperature;humidity
6393;BME280;3229;42.674;23.282;2022-09-09T00:02:18;94886.25;;;20.21;79.50
6393;BME280;3229;42.674;23.282;2022-09-09T00:04:54;94885.25;;;20.22;79.55
6393;BME280;3229;42.674;23.282;2022-09-09T00:07:33;94861.97;;;20.08;79.63
6393;BME280;3229;42.674;23.282;2022-09-09T00:10:13;94885.03;;;20.24;79.57
6393;BME280;3229;42.674;23.282;2022-09-09T00:12:51;94849.97;;;20.00;79.92
6393;BME280;3229;42.674;23.282;2022-09-09T00:15:23;94885.00;;;20.17;80.23
6393;BME280;3229;42.674;23.282;2022-09-09T00:17:55;94869.97;;;20.06;80.23
6393;BME280;3229;42.674;23.282;2022-09-09T00:20:28;94866.94;;;20.02;80.25
6393;BME280;3229;42.674;23.282;2022-09-09T00:23:00;94841.97;;;19.95;80.29
6393;BME280;3229;42.674;23.282;2022-09-09T00:25:36;94851.78;;;19.99;80.42
6393;BME280;3229;42.674;23.282;2022-09-09T00:28:15;94857.56;;;20.01;80.91
6393;BME280;3229;42.674;23.282;2022-09-09T00:30:44;94852.53;;;19.93;80.97
6393;BME280;3229;42.674;23.282;2022-09-09T00:33:14;94843.72;;;19.94;81.02
6393;BME280;3229;42.674;23.282;2022-09-09T00:35:46;94842.19;;;20.00;80.65
6393;BME280;3229;42.674;23.282;2022-09-09T00:38:15;94839.38;;;19.95;80.70
6393;BME280;3229;42.674;23.282;2022-09-09T00:40:49;94839.53;;;19.93;81.47
6393;BME280;3229;42.674;23.282;2022-09-09T00:43:27;94836.78;;;19.95;81.17
6393;BME280;3229;42.674;23.282;2022-09-09T00:46:28;94838.16;;;19.91;81.65
6393;BME280;3229;42.674;23.282;2022-09-09T00:49:04;94843.34;;;19.91;81.86
6393;BME280;3229;42.674;23.282;2022-09-09T00:51:45;94844.31;;;19.90;82.20
6393;BME280;3229;42.674;23.282;2022-09-09T00:54:28;94841.13;;;19.88;81.72
6393;BME280;3229;42.674;23.282;2022-09-09T00:57:06;94804.44;;;19.63;82.55
6393;BME280;3229;42.674;23.282;2022-09-09T00:59:46;94844.88;;;19.85;82.45
6393;BME280;3229;42.674;23.282;2022-09-09T01:02:19;94847.69;;;19.84;82.35
6393;BME280;3229;42.674;23.282;2022-09-09T01:04:50;94818.53;;;19.60;82.66
6393;BME280;3229;42.674;23.282;2022-09-09T01:07:19;94838.63;;;19.73;82.38
6393;BME280;3229;42.674;23.282;2022-09-09T01:09:52;94845.22;;;19.75;82.76
6393;BME280;3229;42.674;23.282;2022-09-09T01:12:28;94846.22;;;19.74;82.81
6393;BME280;3229;42.674;23.282;2022-09-09T01:15:03;94835.78;;;19.68;82.65
6393;BME280;3229;42.674;23.282;2022-09-09T01:17:44;94846.41;;;19.73;82.41
6393;BME280;3229;42.674;23.282;2022-09-09T01:20:16;94836.59;;;19.68;82.85
6393;BME280;3229;42.674;23.282;2022-09-09T01:23:01;94801.28;;;19.39;82.95
6393;BME280;3229;42.674;23.282;2022-09-09T01:26:04;94836.56;;;19.62;82.84
6393;BME280;3229;42.674;23.282;2022-09-09T01:28:35;94816.69;;;19.47;83.30
6393;BME280;3229;42.674;23.282;2022-09-09T01:31:04;94827.09;;;19.54;82.71
6393;BME280;3229;42.674;23.282;2022-09-09T01:33:32;94848.34;;;19.64;82.63
6393;BME280;3229;42.674;23.282;2022-09-09T01:36:02;94847.75;;;19.62;83.11
6393;BME280;3229;42.674;23.282;2022-09-09T01:38:32;94847.78;;;19.69;82.42
6393;BME280;3229;42.674;23.282;2022-09-09T01:41:00;94808.84;;;19.41;82.42
6393;BME280;3229;42.674;23.282;2022-09-09T01:43:28;94852.47;;;19.59;82.74
6393;BME280;3229;42.674;23.282;2022-09-09T01:45:59;94852.25;;;19.53;83.03
6393;BME280;3229;42.674;23.282;2022-09-09T01:48:32;94835.59;;;19.41;82.66
6393;BME280;3229;42.674;23.282;2022-09-09T01:51:02;94856.22;;;19.49;83.15
6393;BME280;3229;42.674;23.282;2022-09-09T01:53:29;94849.94;;;19.37;83.32
6393;BME280;3229;42.674;23.282;2022-09-09T01:56:04;94867.34;;;19.43;83.33
6393;BME280;3229;42.674;23.282;2022-09-09T01:58:47;94831.47;;;19.25;83.36
6393;BME280;3229;42.674;23.282;2022-09-09T02:01:27;94858.13;;;19.41;83.02
6393;BME280;3229;42.674;23.282;2022-09-09T02:04:02;94845.88;;;19.28;82.84
6393;BME280;3229;42.674;23.282;2022-09-09T02:06:34;94850.69;;;19.31;82.74
6393;BME280;3229;42.674;23.282;2022-09-09T02:09:04;94864.25;;;19.33;82.84
6393;BME280;3229;42.674;23.282;2022-09-09T02:11:32;94851.84;;;19.28;83.64
6393;BME280;3229;42.674;23.282;2022-09-09T02:14:08;94847.28;;;19.30;82.93
6393;BME280;3229;42.674;23.282;2022-09-09T02:16:40;94775.13;;;18.85;83.13
6393;BME280;3229;42.674;23.282;2022-09-09T02:19:12;94759.69;;;18.76;82.82
6393;BME280;3229;42.674;23.282;2022-09-09T02:21:42;94845.06;;;19.27;83.59
6393;BME280;3229;42.674;23.282;2022-09-09T02:24:12;94820.19;;;19.12;83.44
6393;BME280;3229;42.674;23.282;2022-09-09T02:26:42;94832.44;;;19.18;83.65
6393;BME280;3229;42.674;23.282;2022-09-09T02:29:16;94847.44;;;19.22;83.82
6393;BME280;3229;42.674;23.282;2022-09-09T02:31:46;94853.03;;;19.26;83.06
6393;BME280;3229;42.674;23.282;2022-09-09T02:34:16;94851.47;;;19.32;82.38
6393;BME280;3229;42.674;23.282;2022-09-09T02:36:46;94833.97;;;19.12;82.64
6393;BME280;3229;42.674;23.282;2022-09-09T02:39:13;94858.41;;;19.24;82.90
6393;BME280;3229;42.674;23.282;2022-09-09T02:41:41;94855.94;;;19.16;83.06
6393;BME280;3229;42.674;23.282;2022-09-09T02:44:10;94807.38;;;18.82;83.13
6393;BME280;3229;42.674;23.282;2022-09-09T02:46:54;94864.50;;;19.17;83.22
6393;BME280;3229;42.674;23.282;2022-09-09T02:49:28;94808.72;;;18.78;83.68
6393;BME280;3229;42.674;23.282;2022-09-09T02:52:02;94865.63;;;19.08;83.39
6393;BME280;3229;42.674;23.282;2022-09-09T02:54:33;94852.06;;;19.05;83.84
6393;BME280;3229;42.674;23.282;2022-09-09T02:57:06;94860.00;;;19.04;83.44
6393;BME280;3229;42.674;23.282;2022-09-09T02:59:35;94851.63;;;19.02;83.76
6393;BME280;3229;42.674;23.282;2022-09-09T03:02:04;94863.00;;;19.01;83.81
6393;BME280;3229;42.674;23.282;2022-09-09T03:04:31;94740.41;;;18.21;83.83
6393;BME280;3229;42.674;23.282;2022-09-09T03:06:59;94860.31;;;18.94;84.13
6393;BME280;3229;42.674;23.282;2022-09-09T03:09:25;94841.25;;;18.80;83.99
6393;BME280;3229;42.674;23.282;2022-09-09T03:11:52;94865.91;;;18.91;84.18
6393;BME280;3229;42.674;23.282;2022-09-09T03:14:20;94858.66;;;18.87;84.29
6393;BME280;3229;42.674;23.282;2022-09-09T03:16:50;94843.16;;;18.72;84.05
6393;BME280;3229;42.674;23.282;2022-09-09T03:19:18;94850.38;;;18.76;84.62
6393;BME280;3229;42.674;23.282;2022-09-09T03:21:45;94842.16;;;18.73;84.22
6393;BME280;3229;42.674;23.282;2022-09-09T03:24:15;94852.78;;;18.78;84.58
6393;BME280;3229;42.674;23.282;2022-09-09T03:26:42;94814.97;;;18.47;84.43
6393;BME280;3229;42.674;23.282;2022-09-09T03:29:11;94820.94;;;18.48;85.12
6393;BME280;3229;42.674;23.282;2022-09-09T03:31:39;94851.94;;;18.71;85.27
6393;BME280;3229;42.674;23.282;2022-09-09T03:34:06;94819.91;;;18.42;85.53
6393;BME280;3229;42.674;23.282;2022-09-09T03:36:35;94861.22;;;18.65;85.84
6393;BME280;3229;42.674;23.282;2022-09-09T03:39:03;94856.19;;;18.64;85.80
6393;BME280;3229;42.674;23.282;2022-09-09T03:41:31;94834.28;;;18.45;85.18
6393;BME280;3229;42.674;23.282;2022-09-09T03:43:59;94823.03;;;18.52;84.95
6393;BME280;3229;42.674;23.282;2022-09-09T03:46:26;94852.38;;;18.74;84.59
6393;BME280;3229;42.674;23.282;2022-09-09T03:48:53;94857.28;;;18.69;84.93
6393;BME280;3229;42.674;23.282;2022-09-09T03:51:20;94842.88;;;18.67;84.81
6393;BME280;3229;42.674;23.282;2022-09-09T03:53:49;94863.88;;;18.72;85.46
6393;BME280;3229;42.674;23.282;2022-09-09T03:56:15;94866.81;;;18.69;85.83
6393;BME280;3229;42.674;23.282;2022-09-09T03:58:48;94852.38;;;18.60;86.23
6393;BME280;3229;42.674;23.282;2022-09-09T04:01:15;94817.25;;;18.36;86.13
6393;BME280;3229;42.674;23.282;2022-09-09T04:03:43;94856.94;;;18.58;86.03
6393;BME280;3229;42.674;23.282;2022-09-09T04:06:12;94853.34;;;18.59;85.65
6393;BME280;3229;42.674;23.282;2022-09-09T04:08:40;94801.38;;;18.24;85.76
6393;BME280;3229;42.674;23.282;2022-09-09T04:11:09;94824.03;;;18.37;86.21
6393;BME280;3229;42.674;23.282;2022-09-09T04:13:37;94864.16;;;18.62;86.30
6393;BME280;3229;42.674;23.282;2022-09-09T04:16:05;94866.13;;;18.60;86.43
6393;BME280;3229;42.674;23.282;2022-09-09T04:18:32;94833.41;;;18.38;86.62
6393;BME280;3229;42.674;23.282;2022-09-09T04:20:59;94869.59;;;18.67;85.96
6393;BME280;3229;42.674;23.282;2022-09-09T04:23:27;94861.38;;;18.64;86.83
6393;BME280;3229;42.674;23.282;2022-09-09T04:25:56;94857.38;;;18.61;86.64
6393;BME280;3229;42.674;23.282;2022-09-09T04:28:29;94862.81;;;18.66;86.74
6393;BME280;3229;42.674;23.282;2022-09-09T04:30:57;94855.31;;;18.56;86.39
6393;BME280;3229;42.674;23.282;2022-09-09T04:33:29;94876.66;;;18.73;85.88
6393;BME280;3229;42.674;23.282;2022-09-09T04:35:57;94834.19;;;18.38;85.98
6393;BME280;3229;42.674;23.282;2022-09-09T04:38:28;94862.91;;;18.73;84.98
6393;BME280;3229;42.674;23.282;2022-09-09T04:41:09;94872.31;;;18.74;85.77
6393;BME280;3229;42.674;23.282;2022-09-09T04:43:38;94822.59;;;18.34;86.07
6393;BME280;3229;42.674;23.282;2022-09-09T04:46:05;94875.69;;;18.74;86.02
6393;BME280;3229;42.674;23.282;2022-09-09T04:48:32;94871.09;;;18.76;86.40
6393;BME280;3229;42.674;23.282;2022-09-09T04:51:01;94861.75;;;18.75;86.14
6393;BME280;3229;42.674;23.282;2022-09-09T04:53:29;94855.22;;;18.79;86.35
6393;BME280;3229;42.674;23.282;2022-09-09T04:56:02;94853.66;;;18.85;86.39
6393;BME280;3229;42.674;23.282;2022-09-09T04:58:29;94857.28;;;18.91;86.14
6393;BME280;3229;42.674;23.282;2022-09-09T05:01:07;94848.13;;;18.88;85.74
6393;BME280;3229;42.674;23.282;2022-09-09T05:03:34;94860.31;;;19.16;85.05
6393;BME280;3229;42.674;23.282;2022-09-09T05:06:05;94852.22;;;19.25;84.97
6393;BME280;3229;42.674;23.282;2022-09-09T05:08:34;94831.72;;;19.30;85.38
6393;BME280;3229;42.674;23.282;2022-09-09T05:11:01;94826.22;;;19.40;84.40
6393;BME280;3229;42.674;23.282;2022-09-09T05:13:28;94842.47;;;19.55;84.15
6393;BME280;3229;42.674;23.282;2022-09-09T05:15:57;94858.97;;;19.69;83.18
6393;BME280;3229;42.674;23.282;2022-09-09T05:18:27;94849.47;;;19.83;81.63
6393;BME280;3229;42.674;23.282;2022-09-09T05:21:00;94810.56;;;19.90;80.48
6393;BME280;3229;42.674;23.282;2022-09-09T05:23:29;94844.16;;;20.39;79.16
6393;BME280;3229;42.674;23.282;2022-09-09T05:25:57;94843.00;;;20.55;77.83
6393;BME280;3229;42.674;23.282;2022-09-09T05:28:24;94849.66;;;20.64;76.70
6393;BME280;3229;42.674;23.282;2022-09-09T05:30:58;94704.31;;;19.82;75.76
6393;BME280;3229;42.674;23.282;2022-09-09T05:33:27;94857.50;;;20.97;76.39
6393;BME280;3229;42.674;23.282;2022-09-09T05:35:58;94827.13;;;21.04;75.65
6393;BME280;3229;42.674;23.282;2022-09-09T05:38:25;94845.56;;;21.36;74.62
6393;BME280;3229;42.674;23.282;2022-09-09T05:40:52;94848.75;;;21.58;73.73
6393;BME280;3229;42.674;23.282;2022-09-09T05:43:19;94859.97;;;21.65;70.89
6393;BME280;3229;42.674;23.282;2022-09-09T05:45:46;94859.38;;;21.76;71.13
6393;BME280;3229;42.674;23.282;2022-09-09T05:48:13;94856.16;;;21.81;70.82
6393;BME280;3229;42.674;23.282;2022-09-09T05:50:43;94865.94;;;21.99;70.75
6393;BME280;3229;42.674;23.282;2022-09-09T05:53:10;94862.94;;;21.95;70.15
6393;BME280;3229;42.674;23.282;2022-09-09T05:55:37;94860.69;;;22.05;69.76
6393;BME280;3229;42.674;23.282;2022-09-09T05:58:04;94854.91;;;22.03;69.94
6393;BME280;3229;42.674;23.282;2022-09-09T06:00:31;94860.53;;;21.87;69.44
6393;BME280;3229;42.674;23.282;2022-09-09T06:02:58;94866.94;;;21.85;69.91
6393;BME280;3229;42.674;23.282;2022-09-09T06:05:25;94874.72;;;22.11;69.25
6393;BME280;3229;42.674;23.282;2022-09-09T06:07:55;94878.50;;;22.28;69.26
6393;BME280;3229;42.674;23.282;2022-09-09T06:10:22;94880.44;;;22.46;69.55
6393;BME280;3229;42.674;23.282;2022-09-09T06:12:52;94881.41;;;22.59;67.45
6393;BME280;3229;42.674;23.282;2022-09-09T06:15:19;94879.03;;;22.50;67.08
6393;BME280;3229;42.674;23.282;2022-09-09T06:17:46;94873.78;;;22.57;66.70
6393;BME280;3229;42.674;23.282;2022-09-09T06:20:12;94878.81;;;22.59;66.65
6393;BME280;3229;42.674;23.282;2022-09-09T06:22:40;94872.81;;;22.51;66.96
6393;BME280;3229;42.674;23.282;2022-09-09T06:25:09;94853.94;;;22.56;65.63
6393;BME280;3229;42.674;23.282;2022-09-09T06:27:36;94876.31;;;22.77;65.81
6393;BME280;3229;42.674;23.282;2022-09-09T06:30:03;94879.88;;;22.83;65.65
6393;BME280;3229;42.674;23.282;2022-09-09T06:32:30;94847.41;;;22.78;65.49
6393;BME280;3229;42.674;23.282;2022-09-09T06:34:59;94870.41;;;22.88;64.92
6393;BME280;3229;42.674;23.282;2022-09-09T06:37:27;94864.78;;;22.98;64.71
6393;BME280;3229;42.674;23.282;2022-09-09T06:39:57;94861.91;;;23.06;64.71
6393;BME280;3229;42.674;23.282;2022-09-09T06:42:25;94865.41;;;23.25;64.74
6393;BME280;3229;42.674;23.282;2022-09-09T06:44:52;94866.84;;;23.46;63.68
6393;BME280;3229;42.674;23.282;2022-09-09T06:47:19;94861.88;;;23.63;63.67
6393;BME280;3229;42.674;23.282;2022-09-09T06:49:46;94863.63;;;23.75;63.52
6393;BME280;3229;42.674;23.282;2022-09-09T06:52:14;94869.38;;;23.84;62.97
6393;BME280;3229;42.674;23.282;2022-09-09T06:54:42;94873.84;;;23.95;62.11
6393;BME280;3229;42.674;23.282;2022-09-09T06:57:12;94882.16;;;24.11;62.42
6393;BME280;3229;42.674;23.282;2022-09-09T06:59:40;94875.19;;;24.23;61.49
6393;BME280;3229;42.674;23.282;2022-09-09T07:02:07;94878.28;;;24.13;60.08
6393;BME280;3229;42.674;23.282;2022-09-09T07:04:34;94882.59;;;24.26;60.20
6393;BME280;3229;42.674;23.282;2022-09-09T07:07:02;94887.06;;;24.44;59.87
6393;BME280;3229;42.674;23.282;2022-09-09T07:09:29;94888.38;;;24.53;59.73
6393;BME280;3229;42.674;23.282;2022-09-09T07:11:56;94871.41;;;24.56;60.61
6393;BME280;3229;42.674;23.282;2022-09-09T07:14:25;94838.94;;;24.63;61.04
6393;BME280;3229;42.674;23.282;2022-09-09T07:16:53;94881.56;;;25.12;57.61
6393;BME280;3229;42.674;23.282;2022-09-09T07:19:20;94879.47;;;25.33;58.84
6393;BME280;3229;42.674;23.282;2022-09-09T07:21:47;94878.22;;;25.47;55.86
6393;BME280;3229;42.674;23.282;2022-09-09T07:24:14;94867.19;;;25.45;56.47
6393;BME280;3229;42.674;23.282;2022-09-09T07:26:41;94872.78;;;25.60;56.23
6393;BME280;3229;42.674;23.282;2022-09-09T07:29:11;94848.66;;;25.70;56.69
6393;BME280;3229;42.674;23.282;2022-09-09T07:31:39;94864.38;;;26.05;55.61
6393;BME280;3229;42.674;23.282;2022-09-09T07:34:08;94862.19;;;26.25;56.25
6393;BME280;3229;42.674;23.282;2022-09-09T07:36:35;94858.97;;;26.47;54.94
6393;BME280;3229;42.674;23.282;2022-09-09T07:39:05;94820.28;;;26.42;54.86
6393;BME280;3229;42.674;23.282;2022-09-09T07:41:33;94865.69;;;26.83;53.09
6393;BME280;3229;42.674;23.282;2022-09-09T07:44:04;94868.13;;;27.01;52.79
6393;BME280;3229;42.674;23.282;2022-09-09T07:46:32;94868.97;;;26.90;52.92
6393;BME280;3229;42.674;23.282;2022-09-09T07:48:59;94856.75;;;26.96;52.59
6393;BME280;3229;42.674;23.282;2022-09-09T07:51:30;94875.66;;;27.26;52.30
6393;BME280;3229;42.674;23.282;2022-09-09T07:53:59;94873.59;;;27.29;51.54
6393;BME280;3229;42.674;23.282;2022-09-09T07:56:28;94840.16;;;27.24;51.72
6393;BME280;3229;42.674;23.282;2022-09-09T07:58:56;94876.16;;;27.57;50.09
6393;BME280;3229;42.674;23.282;2022-09-09T08:01:26;94866.63;;;27.68;50.69
6393;BME280;3229;42.674;23.282;2022-09-09T08:03:54;94861.53;;;27.78;50.11
6393;BME280;3229;42.674;23.282;2022-09-09T08:06:26;94873.28;;;27.92;48.92
6393;BME280;3229;42.674;23.282;2022-09-09T08:08:56;94872.25;;;27.93;49.43
6393;BME280;3229;42.674;23.282;2022-09-09T08:11:24;94874.81;;;27.88;49.25
6393;BME280;3229;42.674;23.282;2022-09-09T08:13:52;94832.63;;;27.78;49.58
6393;BME280;3229;42.674;23.282;2022-09-09T08:16:22;94839.38;;;27.91;48.93
6393;BME280;3229;42.674;23.282;2022-09-09T08:18:49;94854.31;;;28.07;49.30
6393;BME280;3229;42.674;23.282;2022-09-09T08:21:19;94869.69;;;28.15;48.26
6393;BME280;3229;42.674;23.282;2022-09-09T08:23:50;94876.03;;;28.19;48.42
6393;BME280;3229;42.674;23.282;2022-09-09T08:26:19;94872.38;;;28.20;49.21
6393;BME280;3229;42.674;23.282;2022-09-09T08:28:48;94863.19;;;28.23;48.68
6393;BME280;3229;42.674;23.282;2022-09-09T08:31:18;94862.16;;;28.24;48.88
6393;BME280;3229;42.674;23.282;2022-09-09T08:33:46;94855.72;;;28.15;49.30
6393;BME280;3229;42.674;23.282;2022-09-09T08:36:14;94860.81;;;28.21;49.13
6393;BME280;3229;42.674;23.282;2022-09-09T08:38:42;94865.81;;;28.23;48.37
6393;BME280;3229;42.674;23.282;2022-09-09T08:41:30;94863.66;;;27.98;48.24
6393;BME280;3229;42.674;23.282;2022-09-09T08:44:06;94854.72;;;27.99;48.41
6393;BME280;3229;42.674;23.282;2022-09-09T08:46:42;94846.47;;;27.90;48.81
6393;BME280;3229;42.674;23.282;2022-09-09T08:49:22;94840.41;;;27.90;49.07
6393;BME280;3229;42.674;23.282;2022-09-09T08:51:53;94852.25;;;27.92;49.49
6393;BME280;3229;42.674;23.282;2022-09-09T08:54:23;94852.91;;;27.99;49.01
6393;BME280;3229;42.674;23.282;2022-09-09T08:56:51;94834.44;;;27.94;49.11
6393;BME280;3229;42.674;23.282;2022-09-09T08:59:18;94843.00;;;28.07;48.83
6393;BME280;3229;42.674;23.282;2022-09-09T09:01:54;94853.78;;;27.88;49.78
6393;BME280;3229;42.674;23.282;2022-09-09T09:04:37;94856.47;;;27.93;49.79
6393;BME280;3229;42.674;23.282;2022-09-09T09:07:15;94849.53;;;28.04;49.44
6393;BME280;3229;42.674;23.282;2022-09-09T09:09:52;94837.38;;;27.98;48.12
6393;BME280;3229;42.674;23.282;2022-09-09T09:12:28;94848.28;;;28.07;48.86
6393;BME280;3229;42.674;23.282;2022-09-09T09:14:56;94841.72;;;28.09;48.89
6393;BME280;3229;42.674;23.282;2022-09-09T09:17:27;94839.13;;;28.14;48.73
6393;BME280;3229;42.674;23.282;2022-09-09T09:19:57;94852.13;;;28.21;48.00
6393;BME280;3229;42.674;23.282;2022-09-09T09:22:31;94850.53;;;28.20;48.68
6393;BME280;3229;42.674;23.282;2022-09-09T09:25:08;94839.72;;;28.16;48.77
6393;BME280;3229;42.674;23.282;2022-09-09T09:27:44;94831.19;;;28.09;48.52
6393;BME280;3229;42.674;23.282;2022-09-09T09:30:17;94843.91;;;28.17;49.09
6393;BME280;3229;42.674;23.282;2022-09-09T09:32:52;94853.53;;;28.29;48.44
6393;BME280;3229;42.674;23.282;2022-09-09T09:35:20;94851.69;;;28.29;48.17
6393;BME280;3229;42.674;23.282;2022-09-09T09:37:47;94845.13;;;28.32;47.79
6393;BME280;3229;42.674;23.282;2022-09-09T09:40:17;94841.25;;;28.34;47.75
6393;BME280;3229;42.674;23.282;2022-09-09T09:42:54;94835.75;;;28.36;47.81
6393;BME280;3229;42.674;23.282;2022-09-09T09:45:27;94816.16;;;28.26;48.29
6393;BME280;3229;42.674;23.282;2022-09-09T09:48:02;94800.78;;;28.18;47.15
6393;BME280;3229;42.674;23.282;2022-09-09T09:50:30;94818.03;;;28.31;47.18
6393;BME280;3229;42.674;23.282;2022-09-09T09:52:59;94781.97;;;28.05;47.13
6393;BME280;3229;42.674;23.282;2022-09-09T09:55:29;94831.44;;;28.30;47.55
6393;BME280;3229;42.674;23.282;2022-09-09T09:58:03;94824.09;;;28.32;47.40
6393;BME280;3229;42.674;23.282;2022-09-09T10:00:30;94810.88;;;28.26;47.44
6393;BME280;3229;42.674;23.282;2022-09-09T10:02:59;94821.47;;;28.32;47.71
6393;BME280;3229;42.674;23.282;2022-09-09T10:05:28;94820.13;;;28.29;47.60
6393;BME280;3229;42.674;23.282;2022-09-09T10:08:03;94821.09;;;28.23;47.83
6393;BME280;3229;42.674;23.282;2022-09-09T10:10:42;94828.75;;;28.24;47.82
6393;BME280;3229;42.674;23.282;2022-09-09T10:13:19;94833.47;;;28.22;48.49
6393;BME280;3229;42.674;23.282;2022-09-09T10:16:00;94798.09;;;27.91;49.67
6393;BME280;3229;42.674;23.282;2022-09-09T10:18:50;94829.53;;;28.03;50.17
6393;BME280;3229;42.674;23.282;2022-09-09T10:21:30;94834.97;;;27.96;50.57
6393;BME280;3229;42.674;23.282;2022-09-09T10:24:14;94836.50;;;27.92;51.22
6393;BME280;3229;42.674;23.282;2022-09-09T10:26:53;94834.13;;;27.91;50.65
6393;BME280;3229;42.674;23.282;2022-09-09T10:29:39;94832.22;;;27.86;50.73
6393;BME280;3229;42.674;23.282;2022-09-09T10:32:27;94829.25;;;27.83;50.73
6393;BME280;3229;42.674;23.282;2022-09-09T10:35:02;94830.53;;;27.80;49.50
6393;BME280;3229;42.674;23.282;2022-09-09T10:37:41;94833.53;;;27.72;50.02
6393;BME280;3229;42.674;23.282;2022-09-09T10:40:23;94839.44;;;27.62;51.09
6393;BME280;3229;42.674;23.282;2022-09-09T10:43:03;94795.63;;;27.29;51.47
6393;BME280;3229;42.674;23.282;2022-09-09T10:45:41;94835.22;;;27.61;50.64
6393;BME280;3229;42.674;23.282;2022-09-09T10:48:30;94840.75;;;27.60;51.37
6393;BME280;3229;42.674;23.282;2022-09-09T10:51:10;94808.56;;;27.36;51.44
6393;BME280;3229;42.674;23.282;2022-09-09T10:53:51;94827.28;;;27.39;51.34
6393;BME280;3229;42.674;23.282;2022-09-09T10:56:21;94847.19;;;27.52;51.95
6393;BME280;3229;42.674;23.282;2022-09-09T10:58:52;94836.09;;;27.50;52.32
6393;BME280;3229;42.674;23.282;2022-09-09T11:01:25;94835.63;;;27.53;51.96
6393;BME280;3229;42.674;23.282;2022-09-09T11:03:57;94828.72;;;27.47;52.03
6393;BME280;3229;42.674;23.282;2022-09-09T11:06:32;94823.06;;;27.38;52.04
6393;BME280;3229;42.674;23.282;2022-09-09T11:09:02;94808.19;;;27.27;52.71
6393;BME280;3229;42.674;23.282;2022-09-09T11:11:34;94835.72;;;27.41;52.82
6393;BME280;3229;42.674;23.282;2022-09-09T11:14:09;94794.00;;;27.11;52.88
6393;BME280;3229;42.674;23.282;2022-09-09T11:16:43;94826.97;;;27.36;53.48
6393;BME280;3229;42.674;23.282;2022-09-09T11:19:17;94792.84;;;27.07;53.94
6393;BME280;3229;42.674;23.282;2022-09-09T11:21:49;94818.59;;;27.22;53.80
6393;BME280;3229;42.674;23.282;2022-09-09T11:24:21;94812.31;;;27.23;54.10
6393;BME280;3229;42.674;23.282;2022-09-09T11:26:53;94813.09;;;27.23;54.83
6393;BME280;3229;42.674;23.282;2022-09-09T11:32:44;94786.38;;;27.26;55.35
6393;BME280;3229;42.674;23.282;2022-09-09T11:35:26;94781.66;;;27.29;55.59
6393;BME280;3229;42.674;23.282;2022-09-09T11:38:15;94777.38;;;27.39;55.69
6393;BME280;3229;42.674;23.282;2022-09-09T11:40:45;94761.78;;;27.33;56.00
6393;BME280;3229;42.674;23.282;2022-09-09T11:43:14;94765.34;;;27.43;56.00
6393;BME280;3229;42.674;23.282;2022-09-09T11:45:51;94757.28;;;27.50;56.39
6393;BME280;3229;42.674;23.282;2022-09-09T11:48:28;94743.94;;;27.51;56.71
6393;BME280;3229;42.674;23.282;2022-09-09T11:51:02;94705.41;;;27.40;56.46
6393;BME280;3229;42.674;23.282;2022-09-09T11:53:31;94712.09;;;27.48;55.95
6393;BME280;3229;42.674;23.282;2022-09-09T11:56:10;94746.22;;;27.65;55.54
6393;BME280;3229;42.674;23.282;2022-09-09T11:58:41;94746.69;;;27.62;55.66
6393;BME280;3229;42.674;23.282;2022-09-09T12:01:35;94742.16;;;27.74;55.50
6393;BME280;3229;42.674;23.282;2022-09-09T12:04:31;94722.56;;;27.65;54.68
6393;BME280;3229;42.674;23.282;2022-09-09T12:07:01;94729.06;;;27.79;54.79
6393;BME280;3229;42.674;23.282;2022-09-09T12:09:42;94733.00;;;27.98;54.31
6393;BME280;3229;42.674;23.282;2022-09-09T12:12:32;94733.91;;;28.09;54.15
6393;BME280;3229;42.674;23.282;2022-09-09T12:15:15;94742.56;;;28.10;54.11
6393;BME280;3229;42.674;23.282;2022-09-09T12:17:47;94706.50;;;28.05;54.50
6393;BME280;3229;42.674;23.282;2022-09-09T12:20:19;94719.56;;;28.22;54.35
6393;BME280;3229;42.674;23.282;2022-09-09T12:23:11;94733.16;;;28.36;53.69
6393;BME280;3229;42.674;23.282;2022-09-09T12:25:53;94725.06;;;28.42;53.08
6393;BME280;3229;42.674;23.282;2022-09-09T12:28:24;94705.19;;;28.30;53.15
6393;BME280;3229;42.674;23.282;2022-09-09T12:30:58;94696.25;;;28.31;52.93
6393;BME280;3229;42.674;23.282;2022-09-09T12:33:33;94719.03;;;28.42;52.79
6393;BME280;3229;42.674;23.282;2022-09-09T12:36:03;94725.91;;;28.48;53.11
6393;BME280;3229;42.674;23.282;2022-09-09T12:38:34;94706.63;;;28.37;52.11
6393;BME280;3229;42.674;23.282;2022-09-09T12:41:01;94713.50;;;28.43;52.44
6393;BME280;3229;42.674;23.282;2022-09-09T12:43:28;94709.78;;;28.39;51.37
6393;BME280;3229;42.674;23.282;2022-09-09T12:45:57;94712.25;;;28.24;51.56
6393;BME280;3229;42.674;23.282;2022-09-09T12:48:33;94707.78;;;28.24;52.46
6393;BME280;3229;42.674;23.282;2022-09-09T12:51:07;94648.50;;;27.90;51.80
6393;BME280;3229;42.674;23.282;2022-09-09T12:53:44;94705.69;;;28.26;52.88
6393;BME280;3229;42.674;23.282;2022-09-09T12:56:19;94688.06;;;28.27;52.69
6393;BME280;3229;42.674;23.282;2022-09-09T12:58:49;94696.19;;;28.25;52.85
6393;BME280;3229;42.674;23.282;2022-09-09T13:01:22;94693.13;;;28.34;52.24
6393;BME280;3229;42.674;23.282;2022-09-09T13:03:50;94671.19;;;28.23;53.25
6393;BME280;3229;42.674;23.282;2022-09-09T13:06:21;94689.78;;;28.38;52.92
6393;BME280;3229;42.674;23.282;2022-09-09T13:08:49;94674.72;;;28.34;53.15
6393;BME280;3229;42.674;23.282;2022-09-09T13:11:19;94673.22;;;28.16;52.71
6393;BME280;3229;42.674;23.282;2022-09-09T13:13:51;94634.00;;;27.65;53.84
6393;BME280;3229;42.674;23.282;2022-09-09T13:16:21;94674.63;;;28.01;54.00
6393;BME280;3229;42.674;23.282;2022-09-09T13:18:48;94686.88;;;28.13;54.61
6393;BME280;3229;42.674;23.282;2022-09-09T13:21:16;94674.56;;;28.18;54.48
6393;BME280;3229;42.674;23.282;2022-09-09T13:23:49;94673.47;;;28.14;54.70
6393;BME280;3229;42.674;23.282;2022-09-09T13:26:23;94665.38;;;28.21;53.33
6393;BME280;3229;42.674;23.282;2022-09-09T13:28:51;94654.88;;;28.21;52.51
6393;BME280;3229;42.674;23.282;2022-09-09T13:31:21;94645.59;;;28.13;52.52
6393;BME280;3229;42.674;23.282;2022-09-09T13:33:48;94655.06;;;28.14;52.87
6393;BME280;3229;42.674;23.282;2022-09-09T13:36:27;94663.69;;;28.10;53.40
6393;BME280;3229;42.674;23.282;2022-09-09T13:38:58;94656.31;;;28.07;53.69